Time;durP1;ratioP1;P1;durP2;ratioP2;P2;SDS_P1;SDS_P2;PMS_P1;PMS_P2;Temp;Humidity;BMP_temperature;BMP_pressure;BME280_temperature;BME280_humidity;BME280_pressure;Samples;Min_cycle;Max_cycle;Signal;HPM_P1;HPM_P2
2022/10/13 00:00:46;;;;;;;13.73;3.53;;;;;;;;;;5001707;28;21025;-76
2022/10/13 00:03:12;;;;;;;19.88;5.20;;;;;;;;;;5005545;28;20057;-76
2022/10/13 00:05:42;;;;;;;9.07;5.15;;;;;;;;;;5009381;28;20038;-76
2022/10/13 00:08:09;;;;;;;10.98;4.07;;;;;;;;;;5003350;28;20460;-76
2022/10/13 00:10:36;;;;;;;13.07;5.18;;;;;;;;;;5004089;28;20061;-76
2022/10/13 00:13:03;;;;;;;14.88;4.60;;;;;;;;;;5009480;28;20053;-76
2022/10/13 00:15:29;;;;;;;11.10;4.72;;;;;;;;;;4992736;28;20043;-76
2022/10/13 00:17:54;;;;;;;11.05;4.20;;;;;;;;;;4978680;28;20074;-77
2022/10/13 00:20:20;;;;;;;13.48;4.95;;;;;;;;;;4976551;28;20035;-76
2022/10/13 00:22:46;;;;;;;11.88;4.40;;;;;;;;;;4986975;28;20128;-76
2022/10/13 00:25:12;;;;;;;12.02;5.10;;;;;;;;;;4982803;28;20035;-76
2022/10/13 00:27:38;;;;;;;16.67;5.07;;;;;;;;;;4988619;28;20030;-76
2022/10/13 00:30:05;;;;;;;8.90;4.63;;;;;;;;;;4991425;28;20038;-76
2022/10/13 00:32:31;;;;;;;10.07;4.22;;;;;;;;;;5000513;28;20027;-76
2022/10/13 00:34:57;;;;;;;15.20;4.60;;;;;;;;;;4993120;28;20042;-77
2022/10/13 00:37:23;;;;;;;8.85;3.90;;;;;;;;;;5005311;28;20854;-76
2022/10/13 00:39:49;;;;;;;11.27;3.60;;;;;;;;;;4987929;28;20109;-76
2022/10/13 00:42:15;;;;;;;12.15;3.70;;;;;;;;;;4972177;28;20122;-76
2022/10/13 00:45:00;;;;;;;11.27;4.43;;;;;;;;;;4986979;28;20127;-76
2022/10/13 00:47:28;;;;;;;14.02;4.20;;;;;;;;;;4985937;28;20053;-76
2022/10/13 00:49:54;;;;;;;10.73;3.92;;;;;;;;;;4984761;28;20045;-76
2022/10/13 00:52:21;;;;;;;11.60;3.70;;;;;;;;;;4978347;28;20639;-76
2022/10/13 00:54:48;;;;;;;12.52;4.13;;;;;;;;;;4976104;28;20031;-76
2022/10/13 00:57:14;;;;;;;8.40;3.78;;;;;;;;;;4988053;28;20045;-76
2022/10/13 00:59:40;;;;;;;9.85;4.40;;;;;;;;;;4993117;28;20401;-76
2022/10/13 01:02:07;;;;;;;10.63;4.28;;;;;;;;;;4992643;28;20038;-76
2022/10/13 01:04:36;;;;;;;14.23;4.43;;;;;;;;;;4989189;28;20022;-76
2022/10/13 01:07:02;;;;;;;15.65;4.45;;;;;;;;;;4985378;28;20039;-77
2022/10/13 01:09:35;;;;;;;13.00;4.43;;;;;;;;;;4989209;28;20048;-76
2022/10/13 01:12:01;;;;;;;9.02;4.82;;;;;;;;;;4975624;28;20474;-76
2022/10/13 01:14:36;;;;;;;13.57;4.45;;;;;;;;;;4988308;28;20064;-77
2022/10/13 01:17:20;;;;;;;12.43;4.35;;;;;;;;;;5008384;28;20038;-77
2022/10/13 01:20:10;;;;;;;11.18;3.55;;;;;;;;;;5007886;28;20076;-76
2022/10/13 01:22:45;;;;;;;13.05;4.28;;;;;;;;;;5005065;28;20474;-77
2022/10/13 01:25:23;;;;;;;9.70;4.15;;;;;;;;;;5000204;28;20038;-77
2022/10/13 01:28:09;;;;;;;9.07;4.18;;;;;;;;;;4991273;28;20046;-77
2022/10/13 01:30:38;;;;;;;12.90;3.80;;;;;;;;;;4962504;28;20428;-77
2022/10/13 01:33:04;;;;;;;11.30;3.65;;;;;;;;;;5002573;28;20076;-76
2022/10/13 01:35:47;;;;;;;9.82;3.35;;;;;;;;;;5006663;28;20109;-76
2022/10/13 01:38:22;;;;;;;13.32;4.22;;;;;;;;;;5004416;28;20065;-77
2022/10/13 01:40:54;;;;;;;9.85;3.97;;;;;;;;;;5007260;28;20042;-77
2022/10/13 01:43:28;;;;;;;12.63;4.25;;;;;;;;;;5003172;28;20145;-77
2022/10/13 01:46:03;;;;;;;12.75;3.97;;;;;;;;;;5008631;28;20029;-77
2022/10/13 01:48:29;;;;;;;10.35;4.43;;;;;;;;;;5006048;28;20080;-76
2022/10/13 01:50:56;;;;;;;12.68;4.70;;;;;;;;;;5006231;28;20048;-77
2022/10/13 01:53:23;;;;;;;13.15;4.43;;;;;;;;;;5002688;28;20045;-77
2022/10/13 01:55:53;;;;;;;11.05;4.00;;;;;;;;;;4998548;28;20739;-76
2022/10/13 01:58:19;;;;;;;15.95;5.10;;;;;;;;;;5000651;28;20037;-77
2022/10/13 02:00:54;;;;;;;18.85;4.60;;;;;;;;;;4997797;28;20030;-77
2022/10/13 02:03:26;;;;;;;11.63;3.47;;;;;;;;;;5001474;28;20832;-77
2022/10/13 02:06:01;;;;;;;14.52;4.10;;;;;;;;;;5002927;28;20042;-76
2022/10/13 02:08:39;;;;;;;13.13;4.35;;;;;;;;;;5003187;28;20034;-76
2022/10/13 02:11:05;;;;;;;12.98;4.53;;;;;;;;;;5009643;28;20080;-77
2022/10/13 02:13:34;;;;;;;9.63;5.25;;;;;;;;;;5009857;28;20030;-76
2022/10/13 02:16:00;;;;;;;10.02;4.28;;;;;;;;;;5000441;28;20049;-76
2022/10/13 02:18:29;;;;;;;11.60;4.50;;;;;;;;;;5011886;28;20139;-77
2022/10/13 02:20:55;;;;;;;10.38;4.47;;;;;;;;;;5006078;28;20036;-77
2022/10/13 02:23:21;;;;;;;15.70;4.18;;;;;;;;;;5011238;28;20079;-77
2022/10/13 02:25:48;;;;;;;14.93;4.43;;;;;;;;;;5003603;28;20042;-76
2022/10/13 02:28:15;;;;;;;10.05;4.15;;;;;;;;;;5004432;28;20084;-77
2022/10/13 02:30:41;;;;;;;10.90;3.80;;;;;;;;;;5002850;28;20029;-76
2022/10/13 02:33:07;;;;;;;9.55;3.35;;;;;;;;;;5000988;28;20046;-77
2022/10/13 02:35:34;;;;;;;11.38;3.67;;;;;;;;;;5006553;28;20034;-77
2022/10/13 02:38:00;;;;;;;13.45;4.47;;;;;;;;;;5007498;28;20337;-77
2022/10/13 02:40:26;;;;;;;9.20;3.63;;;;;;;;;;5010004;28;20029;-76
2022/10/13 02:42:52;;;;;;;10.95;4.20;;;;;;;;;;5011151;28;20033;-77
2022/10/13 02:45:18;;;;;;;8.43;4.15;;;;;;;;;;5010745;28;20484;-76
2022/10/13 02:47:45;;;;;;;15.60;4.97;;;;;;;;;;5010738;28;20065;-76
2022/10/13 02:50:11;;;;;;;13.60;4.43;;;;;;;;;;5010088;28;20030;-77
2022/10/13 02:52:37;;;;;;;7.97;4.38;;;;;;;;;;5010207;28;20036;-77
2022/10/13 02:55:03;;;;;;;12.07;4.55;;;;;;;;;;4996917;28;20503;-76
2022/10/13 02:57:29;;;;;;;15.48;3.90;;;;;;;;;;5008647;28;20814;-76
2022/10/13 02:59:55;;;;;;;10.63;3.78;;;;;;;;;;5006688;28;20034;-77
2022/10/13 03:02:21;;;;;;;10.30;3.92;;;;;;;;;;5010235;28;20040;-77
2022/10/13 03:04:48;;;;;;;13.20;4.30;;;;;;;;;;5010392;28;20041;-76
2022/10/13 03:07:14;;;;;;;9.38;3.95;;;;;;;;;;5009863;28;20570;-77
2022/10/13 03:09:40;;;;;;;11.00;4.30;;;;;;;;;;5010800;28;20678;-77
2022/10/13 03:12:06;;;;;;;13.93;3.53;;;;;;;;;;5009878;28;20148;-76
2022/10/13 03:14:32;;;;;;;8.80;3.50;;;;;;;;;;5009420;28;20095;-76
2022/10/13 03:16:58;;;;;;;10.95;3.38;;;;;;;;;;5005735;28;20034;-76
2022/10/13 03:19:24;;;;;;;7.93;3.20;;;;;;;;;;5005430;28;20033;-76
2022/10/13 03:21:50;;;;;;;10.23;3.58;;;;;;;;;;5002995;28;20405;-76
2022/10/13 03:24:17;;;;;;;9.95;3.22;;;;;;;;;;5005844;28;20145;-76
2022/10/13 03:26:43;;;;;;;8.52;3.33;;;;;;;;;;5005160;28;20053;-76
2022/10/13 03:29:13;;;;;;;6.25;2.95;;;;;;;;;;4998749;28;20037;-76
2022/10/13 03:31:40;;;;;;;10.25;3.35;;;;;;;;;;5009849;28;20033;-77
2022/10/13 03:34:06;;;;;;;11.60;3.92;;;;;;;;;;5007072;28;20031;-76
2022/10/13 03:36:32;;;;;;;10.13;3.67;;;;;;;;;;5010527;28;20177;-76
2022/10/13 03:38:58;;;;;;;11.50;3.78;;;;;;;;;;5010447;28;20520;-77
2022/10/13 03:41:24;;;;;;;9.68;3.13;;;;;;;;;;5010712;28;20037;-77
2022/10/13 03:43:50;;;;;;;12.02;4.00;;;;;;;;;;5008065;28;20030;-77
2022/10/13 03:46:17;;;;;;;8.15;3.22;;;;;;;;;;5009223;28;20042;-77
2022/10/13 03:48:43;;;;;;;14.10;3.90;;;;;;;;;;5008471;28;20404;-77
2022/10/13 03:51:19;;;;;;;12.35;3.25;;;;;;;;;;5001089;28;20046;-77
2022/10/13 03:53:46;;;;;;;7.32;2.75;;;;;;;;;;4997425;28;20030;-77
2022/10/13 03:56:14;;;;;;;8.77;3.20;;;;;;;;;;5007309;28;20121;-76
2022/10/13 03:58:40;;;;;;;10.13;3.00;;;;;;;;;;5009722;28;20029;-77
2022/10/13 04:01:06;;;;;;;9.20;3.13;;;;;;;;;;5008667;28;20030;-76
2022/10/13 04:03:33;;;;;;;12.15;3.90;;;;;;;;;;4997147;28;20040;-76
2022/10/13 04:06:02;;;;;;;10.85;3.88;;;;;;;;;;4999562;28;20145;-76
2022/10/13 04:08:29;;;;;;;12.43;4.35;;;;;;;;;;5001616;28;20045;-76
2022/10/13 04:10:58;;;;;;;11.18;3.78;;;;;;;;;;5003830;28;20508;-77
2022/10/13 04:13:24;;;;;;;10.48;3.58;;;;;;;;;;5000008;28;20034;-76
2022/10/13 04:15:50;;;;;;;11.48;4.13;;;;;;;;;;5008654;28;20041;-76
2022/10/13 04:18:16;;;;;;;13.60;4.43;;;;;;;;;;5006553;28;20033;-76
2022/10/13 04:20:42;;;;;;;11.13;3.95;;;;;;;;;;5003488;28;20495;-77
2022/10/13 04:23:08;;;;;;;10.45;3.72;;;;;;;;;;5003288;28;20038;-76
2022/10/13 04:25:38;;;;;;;9.98;3.42;;;;;;;;;;5009182;28;20113;-76
2022/10/13 04:28:05;;;;;;;12.35;4.53;;;;;;;;;;4999139;28;20076;-76
2022/10/13 04:30:32;;;;;;;10.48;3.80;;;;;;;;;;5008022;28;20037;-77
2022/10/13 04:32:58;;;;;;;10.52;3.85;;;;;;;;;;5009674;28;20033;-77
2022/10/13 04:35:24;;;;;;;9.63;4.07;;;;;;;;;;5008509;28;20083;-76
2022/10/13 04:37:50;;;;;;;12.38;4.60;;;;;;;;;;5009541;28;20499;-77
2022/10/13 04:40:16;;;;;;;12.07;4.70;;;;;;;;;;5006651;28;20035;-76
2022/10/13 04:42:42;;;;;;;14.82;4.90;;;;;;;;;;5008192;28;20034;-76
2022/10/13 04:45:09;;;;;;;15.55;5.15;;;;;;;;;;5009285;28;20108;-76
2022/10/13 04:47:36;;;;;;;13.02;5.32;;;;;;;;;;4999784;28;20038;-77
2022/10/13 04:50:03;;;;;;;14.60;7.68;;;;;;;;;;5007581;28;20382;-77
2022/10/13 04:52:29;;;;;;;11.57;4.80;;;;;;;;;;5007737;28;20043;-77
2022/10/13 04:54:55;;;;;;;10.82;4.45;;;;;;;;;;5007444;28;20076;-76
2022/10/13 04:57:21;;;;;;;11.15;4.18;;;;;;;;;;5008437;28;20054;-76
2022/10/13 04:59:47;;;;;;;15.23;5.22;;;;;;;;;;5009007;28;20083;-77
2022/10/13 05:02:13;;;;;;;11.88;5.15;;;;;;;;;;5001637;28;20049;-76
2022/10/13 05:04:39;;;;;;;12.23;3.65;;;;;;;;;;5004817;28;20377;-77
2022/10/13 05:07:05;;;;;;;9.25;2.88;;;;;;;;;;5005823;28;20033;-77
2022/10/13 05:09:31;;;;;;;9.30;3.38;;;;;;;;;;5005526;28;20029;-77
2022/10/13 05:11:57;;;;;;;15.50;4.55;;;;;;;;;;5006505;28;20046;-76
2022/10/13 05:14:23;;;;;;;14.88;4.88;;;;;;;;;;5003713;28;20082;-77
2022/10/13 05:16:49;;;;;;;13.63;5.45;;;;;;;;;;5004993;28;20052;-77
2022/10/13 05:19:15;;;;;;;21.13;5.63;;;;;;;;;;5004931;28;20034;-76
2022/10/13 05:21:41;;;;;;;15.15;5.07;;;;;;;;;;5002961;28;20042;-77
2022/10/13 05:24:12;;;;;;;11.07;4.72;;;;;;;;;;5006070;28;20030;-76
2022/10/13 05:26:39;;;;;;;9.57;3.72;;;;;;;;;;4997848;28;20038;-76
2022/10/13 05:29:05;;;;;;;10.25;3.97;;;;;;;;;;5005394;28;20025;-77
2022/10/13 05:31:31;;;;;;;11.15;3.88;;;;;;;;;;5004249;28;20064;-77
2022/10/13 05:33:58;;;;;;;10.27;3.72;;;;;;;;;;5008981;28;20524;-77
2022/10/13 05:36:31;;;;;;;10.48;4.18;;;;;;;;;;5008131;28;20817;-76
2022/10/13 05:38:58;;;;;;;11.80;5.10;;;;;;;;;;5002139;28;20477;-76
2022/10/13 05:41:25;;;;;;;14.77;5.53;;;;;;;;;;5006251;28;20059;-77
2022/10/13 05:43:56;;;;;;;15.57;6.25;;;;;;;;;;5010007;28;20072;-77
2022/10/13 05:46:22;;;;;;;21.13;6.28;;;;;;;;;;5001923;28;20416;-77
2022/10/13 05:48:48;;;;;;;9.63;4.65;;;;;;;;;;5002986;28;20026;-77
2022/10/13 05:51:16;;;;;;;18.90;4.38;;;;;;;;;;5012741;28;20045;-77
2022/10/13 05:53:45;;;;;;;16.25;5.45;;;;;;;;;;5008472;28;20079;-77
2022/10/13 05:56:14;;;;;;;12.20;6.32;;;;;;;;;;4998179;28;20038;-77
2022/10/13 05:58:42;;;;;;;14.30;3.50;;;;;;;;;;5005752;28;20030;-77
2022/10/13 06:01:10;;;;;;;9.13;3.67;;;;;;;;;;5010224;28;20779;-77
2022/10/13 06:03:36;;;;;;;9.77;3.08;;;;;;;;;;5010899;28;20033;-77
2022/10/13 06:06:02;;;;;;;7.38;2.80;;;;;;;;;;5012897;28;20037;-77
2022/10/13 06:08:29;;;;;;;16.65;3.45;;;;;;;;;;5008168;28;20592;-77
2022/10/13 06:10:55;;;;;;;7.70;3.00;;;;;;;;;;5008754;28;20096;-77
2022/10/13 06:13:21;;;;;;;8.70;3.33;;;;;;;;;;5008549;28;20026;-77
2022/10/13 06:15:47;;;;;;;14.50;4.38;;;;;;;;;;4996449;28;20042;-77
2022/10/13 06:18:13;;;;;;;13.77;5.43;;;;;;;;;;5008808;28;21763;-77
2022/10/13 06:20:39;;;;;;;20.73;5.55;;;;;;;;;;5000693;28;20034;-77
2022/10/13 06:23:05;;;;;;;18.77;5.57;;;;;;;;;;5004497;28;20034;-77
2022/10/13 06:25:31;;;;;;;20.10;5.53;;;;;;;;;;5006970;28;20469;-77
2022/10/13 06:27:58;;;;;;;12.85;5.30;;;;;;;;;;5008483;28;20044;-77
2022/10/13 06:30:25;;;;;;;11.52;3.53;;;;;;;;;;4999656;28;20037;-77
2022/10/13 06:32:52;;;;;;;8.52;3.08;;;;;;;;;;5007020;28;20034;-77
2022/10/13 06:35:18;;;;;;;8.35;3.08;;;;;;;;;;5003157;28;20046;-77
2022/10/13 06:37:47;;;;;;;9.73;4.20;;;;;;;;;;5005984;28;20037;-77
2022/10/13 06:40:13;;;;;;;8.75;3.28;;;;;;;;;;5004164;28;20064;-77
2022/10/13 06:42:39;;;;;;;20.20;9.98;;;;;;;;;;5009453;28;20029;-77
2022/10/13 06:45:05;;;;;;;32.67;8.70;;;;;;;;;;5009476;28;20042;-77
2022/10/13 06:47:31;;;;;;;24.30;6.82;;;;;;;;;;4999998;28;20389;-77
2022/10/13 06:49:57;;;;;;;26.33;7.10;;;;;;;;;;5009018;28;20046;-77
2022/10/13 06:52:23;;;;;;;23.77;6.80;;;;;;;;;;5010842;28;20101;-77
2022/10/13 06:54:49;;;;;;;23.38;5.82;;;;;;;;;;5010017;28;20594;-77
2022/10/13 06:57:15;;;;;;;17.42;5.20;;;;;;;;;;5005383;28;20038;-77
2022/10/13 06:59:43;;;;;;;10.38;2.42;;;;;;;;;;5007655;28;20100;-77
2022/10/13 07:02:09;;;;;;;10.73;2.50;;;;;;;;;;5007148;28;20560;-77
2022/10/13 07:04:35;;;;;;;7.78;2.80;;;;;;;;;;5007629;28;20022;-77
2022/10/13 07:07:01;;;;;;;8.00;3.35;;;;;;;;;;5008029;28;20765;-77
2022/10/13 07:09:27;;;;;;;15.60;5.25;;;;;;;;;;5003850;28;20037;-77
2022/10/13 07:11:53;;;;;;;19.02;6.45;;;;;;;;;;5001197;28;20053;-77
2022/10/13 07:14:19;;;;;;;13.90;5.13;;;;;;;;;;5009293;28;20428;-77
2022/10/13 07:16:47;;;;;;;11.25;5.65;;;;;;;;;;5008097;28;20077;-77
2022/10/13 07:19:13;;;;;;;9.48;4.93;;;;;;;;;;5004378;28;20034;-77
2022/10/13 07:21:39;;;;;;;21.67;5.35;;;;;;;;;;5008956;28;20036;-77
2022/10/13 07:24:06;;;;;;;14.32;4.65;;;;;;;;;;5004584;28;20029;-77
2022/10/13 07:26:32;;;;;;;12.45;4.78;;;;;;;;;;5004466;28;20128;-77
2022/10/13 07:28:59;;;;;;;9.73;3.20;;;;;;;;;;5006937;28;21953;-77
2022/10/13 07:31:25;;;;;;;9.43;2.92;;;;;;;;;;5001511;28;20042;-77
2022/10/13 07:33:51;;;;;;;8.68;3.33;;;;;;;;;;5010522;28;20029;-77
2022/10/13 07:36:18;;;;;;;9.98;3.45;;;;;;;;;;5005375;28;20666;-77
2022/10/13 07:38:44;;;;;;;15.02;3.45;;;;;;;;;;5006074;28;20071;-77
2022/10/13 07:41:11;;;;;;;8.38;3.33;;;;;;;;;;5002921;28;20039;-77
2022/10/13 07:43:37;;;;;;;12.65;4.32;;;;;;;;;;5005762;28;20032;-77
2022/10/13 07:46:04;;;;;;;19.75;4.75;;;;;;;;;;5008952;28;20041;-77
2022/10/13 07:48:31;;;;;;;21.63;4.55;;;;;;;;;;5002226;28;20029;-77
2022/10/13 07:50:57;;;;;;;19.30;4.43;;;;;;;;;;5006922;28;20492;-78
2022/10/13 07:53:23;;;;;;;26.27;4.47;;;;;;;;;;5007428;28;20034;-77
2022/10/13 07:55:49;;;;;;;10.90;3.38;;;;;;;;;;5004040;28;20052;-77
2022/10/13 07:58:15;;;;;;;10.68;3.30;;;;;;;;;;5002861;28;20030;-77
2022/10/13 08:00:41;;;;;;;9.65;2.97;;;;;;;;;;5008220;28;20073;-77
2022/10/13 08:03:07;;;;;;;8.07;2.78;;;;;;;;;;5004175;28;20373;-77
2022/10/13 08:05:35;;;;;;;11.77;2.90;;;;;;;;;;5003827;28;20038;-77
2022/10/13 08:08:01;;;;;;;9.43;2.13;;;;;;;;;;5007934;28;20544;-77
2022/10/13 08:10:28;;;;;;;12.18;2.65;;;;;;;;;;4993855;28;20145;-77
2022/10/13 08:12:54;;;;;;;16.40;4.18;;;;;;;;;;5008582;28;20025;-77
2022/10/13 08:15:20;;;;;;;13.68;4.03;;;;;;;;;;5007455;28;20131;-77
2022/10/13 08:17:46;;;;;;;11.52;4.43;;;;;;;;;;4998195;28;20046;-77
2022/10/13 08:20:12;;;;;;;13.20;4.60;;;;;;;;;;5007943;28;20040;-77
2022/10/13 08:22:38;;;;;;;17.42;4.40;;;;;;;;;;5000393;28;20029;-77
2022/10/13 08:25:06;;;;;;;8.52;2.63;;;;;;;;;;5002738;28;20049;-77
2022/10/13 08:27:32;;;;;;;7.63;2.15;;;;;;;;;;5001340;28;20025;-76
2022/10/13 08:29:58;;;;;;;6.70;2.00;;;;;;;;;;4993599;28;20038;-77
2022/10/13 08:32:24;;;;;;;9.65;3.55;;;;;;;;;;5003502;28;20610;-77
2022/10/13 08:34:50;;;;;;;9.27;3.58;;;;;;;;;;5007066;28;20473;-77
2022/10/13 08:37:17;;;;;;;21.38;3.88;;;;;;;;;;5007010;28;20600;-77
2022/10/13 08:39:43;;;;;;;14.40;3.78;;;;;;;;;;5002221;28;20034;-77
2022/10/13 08:42:14;;;;;;;14.35;4.30;;;;;;;;;;5002020;28;20030;-77
2022/10/13 08:44:49;;;;;;;17.05;4.13;;;;;;;;;;5008820;28;20026;-77
2022/10/13 08:47:20;;;;;;;12.40;4.00;;;;;;;;;;5001993;28;20026;-77
2022/10/13 08:49:46;;;;;;;16.75;4.30;;;;;;;;;;5003084;28;20026;-77
2022/10/13 08:52:17;;;;;;;11.85;4.40;;;;;;;;;;5008683;28;20030;-77
2022/10/13 08:54:43;;;;;;;13.20;3.15;;;;;;;;;;5001555;28;20031;-77
2022/10/13 08:57:10;;;;;;;10.63;3.33;;;;;;;;;;5008843;28;20026;-77
2022/10/13 08:59:36;;;;;;;7.97;2.60;;;;;;;;;;5008674;28;20026;-77
2022/10/13 09:02:09;;;;;;;12.20;3.00;;;;;;;;;;5009244;28;20041;-78
2022/10/13 09:04:38;;;;;;;7.55;3.10;;;;;;;;;;5007594;28;20033;-78
2022/10/13 09:07:06;;;;;;;9.65;2.97;;;;;;;;;;5009151;28;20033;-77
2022/10/13 09:09:32;;;;;;;10.02;3.15;;;;;;;;;;5005840;28;20042;-77
2022/10/13 09:11:59;;;;;;;8.77;2.72;;;;;;;;;;5006760;28;20112;-77
2022/10/13 09:14:27;;;;;;;14.88;3.33;;;;;;;;;;5004836;28;20077;-77
2022/10/13 09:16:53;;;;;;;13.95;3.10;;;;;;;;;;5004805;28;20042;-78
2022/10/13 09:19:19;;;;;;;10.65;2.72;;;;;;;;;;5008132;28;20805;-77
2022/10/13 09:21:46;;;;;;;7.70;2.85;;;;;;;;;;5011886;28;20507;-78
2022/10/13 09:24:14;;;;;;;13.63;3.03;;;;;;;;;;5001786;28;20033;-78
2022/10/13 09:26:40;;;;;;;11.55;3.60;;;;;;;;;;5001715;28;20824;-77
2022/10/13 09:29:11;;;;;;;9.48;3.00;;;;;;;;;;5008859;28;20035;-78
2022/10/13 09:31:37;;;;;;;12.55;3.08;;;;;;;;;;5005472;28;20072;-77
2022/10/13 09:34:19;;;;;;;7.15;2.83;;;;;;;;;;5001835;28;20034;-77
2022/10/13 09:36:55;;;;;;;12.75;2.78;;;;;;;;;;4999981;28;20042;-77
2022/10/13 09:39:21;;;;;;;9.57;2.63;;;;;;;;;;5011843;28;20835;-77
2022/10/13 09:41:47;;;;;;;11.73;3.30;;;;;;;;;;5009133;28;20034;-77
2022/10/13 09:44:18;;;;;;;12.32;2.95;;;;;;;;;;5010354;28;20092;-77
2022/10/13 09:46:47;;;;;;;12.63;4.10;;;;;;;;;;5011490;28;20125;-78
2022/10/13 09:49:19;;;;;;;14.25;3.38;;;;;;;;;;5010773;28;20044;-78
2022/10/13 09:51:45;;;;;;;;;;;;;;;;;;5006701;28;20049;-78
2022/10/13 09:54:27;;;;;;;18.02;3.92;;;;;;;;;;5008402;28;19913;-77
2022/10/13 09:57:00;;;;;;;7.80;2.53;;;;;;;;;;5007901;28;20037;-77
2022/10/13 09:59:32;;;;;;;10.77;3.15;;;;;;;;;;5011948;28;20088;-78
2022/10/13 10:01:58;;;;;;;;;;;;;;;;;;5006503;28;20807;-77
2022/10/13 10:04:37;;;;;;;9.40;3.13;;;;;;;;;;5007704;28;19913;-78
2022/10/13 10:07:10;;;;;;;14.38;3.20;;;;;;;;;;5002864;28;20113;-78
2022/10/13 10:09:47;;;;;;;10.60;3.58;;;;;;;;;;5006497;28;20038;-77
2022/10/13 10:12:16;;;;;;;12.32;3.95;;;;;;;;;;4999822;28;20034;-77
2022/10/13 10:14:42;;;;;;;16.45;3.67;;;;;;;;;;5003392;28;20085;-77
2022/10/13 10:17:10;;;;;;;10.45;3.28;;;;;;;;;;5006804;28;20045;-77
2022/10/13 10:19:55;;;;;;;12.88;3.53;;;;;;;;;;5008815;28;20034;-77
2022/10/13 10:22:33;;;;;;;9.25;3.88;;;;;;;;;;5008384;28;20446;-78
2022/10/13 10:24:59;;;;;;;14.90;3.33;;;;;;;;;;5006390;28;20490;-77
2022/10/13 10:27:27;;;;;;;14.98;3.85;;;;;;;;;;5006202;28;20025;-77
2022/10/13 10:30:02;;;;;;;13.50;3.88;;;;;;;;;;5008591;28;20481;-77
2022/10/13 10:32:47;;;;;;;15.27;3.20;;;;;;;;;;5006023;28;20030;-77
2022/10/13 10:35:16;;;;;;;11.10;2.90;;;;;;;;;;5006990;28;20048;-78
2022/10/13 10:37:57;;;;;;;11.10;3.83;;;;;;;;;;5008052;28;20072;-77
2022/10/13 10:40:38;;;;;;;11.75;3.42;;;;;;;;;;5008102;28;20035;-77
2022/10/13 10:43:22;;;;;;;17.60;7.90;;;;;;;;;;5005639;28;20061;-77
2022/10/13 10:45:48;;;;;;;19.27;4.78;;;;;;;;;;5000569;28;20041;-78
2022/10/13 10:48:22;;;;;;;10.52;4.15;;;;;;;;;;5002292;28;20029;-78
2022/10/13 10:50:50;;;;;;;11.15;3.67;;;;;;;;;;5003141;28;20046;-78
2022/10/13 10:53:54;;;;;;;11.23;3.95;;;;;;;;;;5003784;28;20127;-78
2022/10/13 10:56:29;;;;;;;21.52;8.38;;;;;;;;;;4951038;28;20498;-78
2022/10/13 10:59:01;;;;;;;13.43;3.17;;;;;;;;;;4951593;28;20117;-77
2022/10/13 11:01:36;;;;;;;12.88;3.92;;;;;;;;;;4982165;28;20050;-78
2022/10/13 11:04:21;;;;;;;13.35;2.90;;;;;;;;;;4997086;28;20823;-78
2022/10/13 11:06:47;;;;;;;14.55;3.60;;;;;;;;;;5000397;28;20474;-78
2022/10/13 11:09:13;;;;;;;11.15;3.20;;;;;;;;;;5004093;28;20034;-78
2022/10/13 11:11:42;;;;;;;11.65;3.58;;;;;;;;;;5002318;28;20040;-78
2022/10/13 11:14:08;;;;;;;11.60;3.70;;;;;;;;;;5009458;28;20108;-78
2022/10/13 11:16:38;;;;;;;12.43;3.53;;;;;;;;;;5000449;28;20469;-78
2022/10/13 11:19:22;;;;;;;6.18;2.40;;;;;;;;;;4999704;28;20050;-77
2022/10/13 11:21:55;;;;;;;12.25;2.92;;;;;;;;;;5003487;28;20037;-78
2022/10/13 11:24:33;;;;;;;8.02;2.38;;;;;;;;;;5005346;28;20816;-78
2022/10/13 11:27:11;;;;;;;13.80;3.35;;;;;;;;;;5009269;28;20485;-78
2022/10/13 11:29:45;;;;;;;21.90;3.20;;;;;;;;;;5003848;28;20492;-78
2022/10/13 11:32:29;;;;;;;7.45;2.38;;;;;;;;;;4999066;28;20580;-78
2022/10/13 11:35:00;;;;;;;9.07;3.05;;;;;;;;;;5002099;28;20727;-78
2022/10/13 11:37:31;;;;;;;12.73;2.88;;;;;;;;;;5006933;28;20029;-78
2022/10/13 11:40:09;;;;;;;11.02;2.20;;;;;;;;;;4999869;28;20105;-78
2022/10/13 11:42:47;;;;;;;12.40;2.45;;;;;;;;;;5003481;28;20033;-78
2022/10/13 11:45:30;;;;;;;12.55;3.00;;;;;;;;;;5003713;28;20048;-78
2022/10/13 11:48:06;;;;;;;10.05;2.50;;;;;;;;;;5009331;28;20048;-77
2022/10/13 11:50:47;;;;;;;8.32;2.35;;;;;;;;;;5006375;28;20045;-78
2022/10/13 11:53:15;;;;;;;11.13;2.30;;;;;;;;;;5002330;28;20125;-77
2022/10/13 11:55:51;;;;;;;7.70;2.33;;;;;;;;;;4995959;28;20034;-78
2022/10/13 11:58:20;;;;;;;10.23;1.95;;;;;;;;;;5002129;28;20030;-78
2022/10/13 12:01:05;;;;;;;10.02;2.10;;;;;;;;;;5004203;28;20030;-78
2022/10/13 12:03:33;;;;;;;8.23;1.75;;;;;;;;;;5005951;28;20449;-78
2022/10/13 12:06:02;;;;;;;6.53;2.13;;;;;;;;;;5005664;28;20038;-78
2022/10/13 12:08:29;;;;;;;8.82;2.28;;;;;;;;;;5007399;28;20088;-78
2022/10/13 12:10:57;;;;;;;11.02;2.30;;;;;;;;;;5008916;28;20358;-78
2022/10/13 12:13:28;;;;;;;7.10;2.60;;;;;;;;;;5005829;28;20041;-78
2022/10/13 12:16:02;;;;;;;5.47;2.25;;;;;;;;;;5008452;28;20694;-78
2022/10/13 12:18:32;;;;;;;10.05;3.15;;;;;;;;;;5003445;28;20022;-78
2022/10/13 12:20:59;;;;;;;8.90;2.70;;;;;;;;;;5009376;28;20060;-78
2022/10/13 12:23:26;;;;;;;16.15;2.85;;;;;;;;;;5003832;28;20022;-77
2022/10/13 12:25:57;;;;;;;11.98;3.00;;;;;;;;;;5003739;28;20042;-78
2022/10/13 12:28:24;;;;;;;8.55;3.22;;;;;;;;;;5002679;28;20041;-77
2022/10/13 12:30:52;;;;;;;9.88;3.88;;;;;;;;;;5006728;28;20431;-78
2022/10/13 12:33:38;;;;;;;16.80;3.70;;;;;;;;;;5008745;28;20068;-77
2022/10/13 12:36:12;;;;;;;12.40;3.72;;;;;;;;;;5003054;28;20069;-77
2022/10/13 12:38:38;;;;;;;12.07;3.33;;;;;;;;;;5009334;28;20044;-78
2022/10/13 12:41:05;;;;;;;9.55;3.28;;;;;;;;;;4998418;28;20049;-77
2022/10/13 12:43:31;;;;;;;11.07;3.78;;;;;;;;;;5000882;28;20022;-78
2022/10/13 12:45:57;;;;;;;7.82;3.00;;;;;;;;;;5005358;28;20037;-78
2022/10/13 12:48:30;;;;;;;9.73;4.57;;;;;;;;;;5001798;28;20096;-78
2022/10/13 12:51:07;;;;;;;13.05;3.65;;;;;;;;;;5008462;28;20053;-77
2022/10/13 12:53:33;;;;;;;8.55;3.15;;;;;;;;;;5002333;28;20105;-78
2022/10/13 12:56:00;;;;;;;9.75;3.45;;;;;;;;;;5002445;28;20121;-78
2022/10/13 12:58:30;;;;;;;8.02;3.33;;;;;;;;;;4994671;28;20058;-77
2022/10/13 13:01:06;;;;;;;16.77;3.97;;;;;;;;;;5003621;28;20053;-78
2022/10/13 13:03:32;;;;;;;12.57;4.25;;;;;;;;;;5000484;28;20057;-77
2022/10/13 13:06:13;;;;;;;12.30;3.28;;;;;;;;;;5002914;28;20096;-77
2022/10/13 13:08:43;;;;;;;9.77;3.10;;;;;;;;;;5007851;28;20036;-77
2022/10/13 13:11:35;;;;;;;9.63;3.20;;;;;;;;;;5003696;28;20111;-77
2022/10/13 13:14:20;;;;;;;10.00;2.95;;;;;;;;;;4995339;28;20057;-78
2022/10/13 13:17:06;;;;;;;9.95;3.20;;;;;;;;;;5004966;28;20052;-78
2022/10/13 13:19:33;;;;;;;13.20;3.55;;;;;;;;;;5001570;28;20034;-78
2022/10/13 13:22:00;;;;;;;9.63;2.50;;;;;;;;;;5000713;28;20034;-77
2022/10/13 13:24:26;;;;;;;10.35;3.22;;;;;;;;;;5002938;28;20030;-77
2022/10/13 13:26:52;;;;;;;9.48;3.63;;;;;;;;;;5005642;28;20049;-78
2022/10/13 13:29:18;;;;;;;10.77;3.38;;;;;;;;;;5000442;28;20057;-78
2022/10/13 13:31:44;;;;;;;11.32;2.53;;;;;;;;;;5007345;28;20077;-78
2022/10/13 13:34:10;;;;;;;16.58;3.10;;;;;;;;;;5002306;28;20883;-77
2022/10/13 13:36:36;;;;;;;9.43;2.60;;;;;;;;;;5003685;28;20042;-77
2022/10/13 13:39:02;;;;;;;10.20;2.88;;;;;;;;;;5000330;28;21109;-78
2022/10/13 13:41:29;;;;;;;7.93;2.42;;;;;;;;;;5002164;28;20134;-77
2022/10/13 13:43:56;;;;;;;8.43;2.70;;;;;;;;;;5006583;28;20872;-78
2022/10/13 13:46:24;;;;;;;12.40;2.85;;;;;;;;;;4995522;28;20087;-78
2022/10/13 13:48:50;;;;;;;8.30;3.13;;;;;;;;;;5001231;28;20038;-78
2022/10/13 13:51:16;;;;;;;9.55;2.83;;;;;;;;;;5007180;28;20030;-77
2022/10/13 13:53:42;;;;;;;11.57;3.45;;;;;;;;;;5008079;28;20034;-78
2022/10/13 13:56:12;;;;;;;9.63;2.60;;;;;;;;;;5008219;28;20396;-78
2022/10/13 13:58:38;;;;;;;7.80;3.25;;;;;;;;;;4998429;28;20385;-78
2022/10/13 14:01:04;;;;;;;13.55;3.33;;;;;;;;;;5007222;28;20042;-77
2022/10/13 14:03:30;;;;;;;7.07;2.33;;;;;;;;;;5007266;28;20033;-77
2022/10/13 14:05:56;;;;;;;8.88;2.95;;;;;;;;;;5008631;28;20398;-77
2022/10/13 14:08:22;;;;;;;7.65;2.20;;;;;;;;;;5010115;28;20030;-78
2022/10/13 14:10:48;;;;;;;11.98;3.05;;;;;;;;;;5004087;28;20053;-77
2022/10/13 14:13:14;;;;;;;12.07;3.22;;;;;;;;;;5005103;28;20040;-77
2022/10/13 14:15:40;;;;;;;10.45;2.85;;;;;;;;;;4983599;28;20085;-78
2022/10/13 14:18:06;;;;;;;8.50;2.58;;;;;;;;;;4987859;28;20034;-78
2022/10/13 14:20:32;;;;;;;8.18;2.60;;;;;;;;;;4986799;28;20042;-77
2022/10/13 14:22:58;;;;;;;7.55;2.90;;;;;;;;;;4989334;28;20037;-78
2022/10/13 14:25:24;;;;;;;9.38;2.97;;;;;;;;;;4986267;28;20034;-78
2022/10/13 14:27:50;;;;;;;15.52;3.38;;;;;;;;;;4989277;28;20066;-78
2022/10/13 14:30:16;;;;;;;16.02;3.55;;;;;;;;;;4986362;28;20117;-78
2022/10/13 14:32:42;;;;;;;10.57;3.25;;;;;;;;;;4985927;28;20074;-77
2022/10/13 14:35:08;;;;;;;7.57;2.63;;;;;;;;;;4985223;28;20045;-77
2022/10/13 14:37:34;;;;;;;9.95;3.17;;;;;;;;;;4989673;28;20393;-77
2022/10/13 14:40:00;;;;;;;10.35;3.15;;;;;;;;;;4988907;28;20081;-78
2022/10/13 14:42:26;;;;;;;13.13;3.13;;;;;;;;;;4983415;28;20392;-78